KBGM/BGM METAR and TAF weather

Enter ICAO airport designator
Station Type Date Time Source
KBGM METAR 2019/06/16 07:15 UTC NOAA

KBGM 160715Z AUTO 22007KT 3SM -RA BR OVC002 16/15 A2990 RMK AO2 P0003 T01560150


Station Type Date Time Source
KBGM Decoded METAR 2019/06/16 07:15 UTC NOAA

BINGHAMTON REGIONAL AIRPORT, NY, United States (KBGM) 42-12N 75-59W 492M
Jun 16, 2019 - 03:15 AM EDT / 2019.06.16 0715 UTC
Wind: from the SW (220 degrees) at 8 MPH (7 KT):0
Visibility: 3 mile(s):0
Sky conditions: overcast
Weather: light rain; mist
Precipitation last hour: 0.03 inches
Temperature: 60.1 F (15.6 C)
Dew Point: 59.0 F (15.0 C)
Relative Humidity: 96%
Pressure (altimeter): 29.9 in. Hg (1012 hPa)
ob: KBGM 160715Z AUTO 22007KT 3SM -RA BR OVC002 16/15 A2990 RMK AO2 P0003 T01560150
cycle: 7

Station Type Date Time Source
KBGM TAF 2019/06/16 06:28 UTC NOAA

TAF
AMD KBGM 160626Z 1606/1706 21008KT P6SM -SHRA BKN004 OVC035
TEMPO 1607/1610 SCT004 BKN015
FM161000 20005KT 4SM -SHRA OVC015
TEMPO 1612/1615 OVC009
FM161800 31004KT P6SM OVC025

Example: see airport list